sensor_id;sensor_type;location;lat;lon;timestamp;pressure;altitude;pressure_sealevel;temperature;humidity
9139;BME280;4604;48.616;9.548;2023-02-26T00:00:11;96335.69;;;-0.12;93.95
9139;BME280;4604;48.616;9.548;2023-02-26T00:02:39;96334.72;;;0.05;92.34
9139;BME280;4604;48.616;9.548;2023-02-26T00:05:07;96340.91;;;-0.12;92.00
9139;BME280;4604;48.616;9.548;2023-02-26T00:07:35;96343.47;;;-0.12;92.02
9139;BME280;4604;48.616;9.548;2023-02-26T00:10:02;96334.81;;;-0.27;93.76
9139;BME280;4604;48.616;9.548;2023-02-26T00:12:30;96344.91;;;-0.22;94.13
9139;BME280;4604;48.616;9.548;2023-02-26T00:14:58;96346.09;;;-0.28;95.02
9139;BME280;4604;48.616;9.548;2023-02-26T00:17:41;96342.69;;;-0.28;95.39
9139;BME280;4604;48.616;9.548;2023-02-26T00:20:11;96338.16;;;-0.25;94.62
9139;BME280;4604;48.616;9.548;2023-02-26T00:22:40;96336.75;;;0.14;90.53
9139;BME280;4604;48.616;9.548;2023-02-26T00:25:08;96346.66;;;-0.07;92.25
9139;BME280;4604;48.616;9.548;2023-02-26T00:27:35;96350.16;;;-0.08;91.61
9139;BME280;4604;48.616;9.548;2023-02-26T00:30:03;96353.59;;;-0.07;92.05
9139;BME280;4604;48.616;9.548;2023-02-26T00:32:30;96358.09;;;-0.11;91.98
9139;BME280;4604;48.616;9.548;2023-02-26T00:34:57;96353.84;;;-0.12;92.11
9139;BME280;4604;48.616;9.548;2023-02-26T00:37:35;96353.06;;;-0.28;92.29
9139;BME280;4604;48.616;9.548;2023-02-26T00:40:14;96352.28;;;-0.30;93.72
9139;BME280;4604;48.616;9.548;2023-02-26T00:42:46;96359.00;;;-0.26;94.20
9139;BME280;4604;48.616;9.548;2023-02-26T00:45:13;96354.00;;;-0.15;92.77
9139;BME280;4604;48.616;9.548;2023-02-26T00:47:46;96360.38;;;-0.05;90.04
9139;BME280;4604;48.616;9.548;2023-02-26T00:50:17;96357.22;;;0.05;89.50
9139;BME280;4604;48.616;9.548;2023-02-26T00:52:52;96361.69;;;0.03;88.77
9139;BME280;4604;48.616;9.548;2023-02-26T00:55:23;96360.22;;;-0.17;89.60
9139;BME280;4604;48.616;9.548;2023-02-26T00:57:49;96364.75;;;-0.21;90.60
9139;BME280;4604;48.616;9.548;2023-02-26T01:00:17;96364.06;;;-0.25;91.08
9139;BME280;4604;48.616;9.548;2023-02-26T01:02:44;96357.41;;;-0.29;92.18
9139;BME280;4604;48.616;9.548;2023-02-26T01:05:12;96358.88;;;-0.25;92.59
9139;BME280;4604;48.616;9.548;2023-02-26T01:07:42;96362.97;;;-0.20;93.13
9139;BME280;4604;48.616;9.548;2023-02-26T01:10:11;96356.78;;;-0.18;93.10
9139;BME280;4604;48.616;9.548;2023-02-26T01:12:40;96354.94;;;-0.16;91.77
9139;BME280;4604;48.616;9.548;2023-02-26T01:15:08;96350.03;;;-0.20;92.45
9139;BME280;4604;48.616;9.548;2023-02-26T01:17:41;96357.94;;;-0.08;89.63
9139;BME280;4604;48.616;9.548;2023-02-26T01:20:15;96350.91;;;-0.06;89.05
9139;BME280;4604;48.616;9.548;2023-02-26T01:22:47;96355.78;;;-0.15;89.62
9139;BME280;4604;48.616;9.548;2023-02-26T01:25:22;96349.94;;;-0.19;89.56
9139;BME280;4604;48.616;9.548;2023-02-26T01:27:51;96346.84;;;-0.26;89.57
9139;BME280;4604;48.616;9.548;2023-02-26T01:30:19;96341.66;;;-0.26;90.52
9139;BME280;4604;48.616;9.548;2023-02-26T01:32:50;96340.34;;;-0.33;91.23
9139;BME280;4604;48.616;9.548;2023-02-26T01:35:31;96339.69;;;-0.36;92.00
9139;BME280;4604;48.616;9.548;2023-02-26T01:38:05;96347.88;;;-0.28;92.60
9139;BME280;4604;48.616;9.548;2023-02-26T01:41:16;96345.09;;;-0.25;92.85
9139;BME280;4604;48.616;9.548;2023-02-26T01:43:52;96350.78;;;-0.18;92.00
9139;BME280;4604;48.616;9.548;2023-02-26T01:46:27;96355.81;;;-0.31;91.83
9139;BME280;4604;48.616;9.548;2023-02-26T01:48:57;96355.25;;;-0.36;92.41
9139;BME280;4604;48.616;9.548;2023-02-26T01:51:46;96343.44;;;-0.42;91.99
9139;BME280;4604;48.616;9.548;2023-02-26T01:54:14;96357.41;;;-0.45;92.86
9139;BME280;4604;48.616;9.548;2023-02-26T01:56:42;96352.25;;;-0.45;93.07
9139;BME280;4604;48.616;9.548;2023-02-26T01:59:14;96354.63;;;-0.26;90.50
9139;BME280;4604;48.616;9.548;2023-02-26T02:01:42;96354.94;;;-0.46;91.21
9139;BME280;4604;48.616;9.548;2023-02-26T02:04:12;96352.91;;;-0.57;92.45
9139;BME280;4604;48.616;9.548;2023-02-26T02:06:40;96358.78;;;-0.53;92.73
9139;BME280;4604;48.616;9.548;2023-02-26T02:09:09;96351.25;;;-0.58;93.37
9139;BME280;4604;48.616;9.548;2023-02-26T02:11:42;96360.81;;;-0.58;93.21
9139;BME280;4604;48.616;9.548;2023-02-26T02:14:19;96345.66;;;-0.66;93.67
9139;BME280;4604;48.616;9.548;2023-02-26T02:16:51;96351.84;;;-0.69;92.76
9139;BME280;4604;48.616;9.548;2023-02-26T02:19:47;96352.94;;;-0.73;93.08
9139;BME280;4604;48.616;9.548;2023-02-26T02:25:33;96365.06;;;-0.89;94.00
9139;BME280;4604;48.616;9.548;2023-02-26T02:28:05;96356.78;;;-0.96;94.09
9139;BME280;4604;48.616;9.548;2023-02-26T02:30:50;96361.72;;;-0.91;94.06
9139;BME280;4604;48.616;9.548;2023-02-26T02:33:20;96368.91;;;-0.96;94.02
9139;BME280;4604;48.616;9.548;2023-02-26T02:35:53;96377.91;;;-1.03;94.29
9139;BME280;4604;48.616;9.548;2023-02-26T02:38:26;96376.06;;;-1.01;94.41
9139;BME280;4604;48.616;9.548;2023-02-26T02:40:57;96378.41;;;-0.97;93.65
9139;BME280;4604;48.616;9.548;2023-02-26T02:43:32;96383.59;;;-0.97;94.23
9139;BME280;4604;48.616;9.548;2023-02-26T02:46:04;96381.53;;;-0.90;93.71
9139;BME280;4604;48.616;9.548;2023-02-26T02:48:34;96383.84;;;-0.86;91.77
9139;BME280;4604;48.616;9.548;2023-02-26T02:51:04;96388.69;;;-0.95;91.75
9139;BME280;4604;48.616;9.548;2023-02-26T02:53:36;96393.72;;;-0.92;90.66
9139;BME280;4604;48.616;9.548;2023-02-26T02:56:08;96387.50;;;-1.05;91.72
9139;BME280;4604;48.616;9.548;2023-02-26T02:58:41;96389.59;;;-1.12;92.40
9139;BME280;4604;48.616;9.548;2023-02-26T03:01:14;96382.97;;;-1.18;92.47
9139;BME280;4604;48.616;9.548;2023-02-26T03:03:51;96384.66;;;-1.17;92.21
9139;BME280;4604;48.616;9.548;2023-02-26T03:06:20;96387.31;;;-1.18;92.73
9139;BME280;4604;48.616;9.548;2023-02-26T03:08:47;96395.09;;;-1.18;92.77
9139;BME280;4604;48.616;9.548;2023-02-26T03:11:15;96393.56;;;-1.22;93.26
9139;BME280;4604;48.616;9.548;2023-02-26T03:13:42;96398.91;;;-1.25;93.17
9139;BME280;4604;48.616;9.548;2023-02-26T03:16:24;96392.75;;;-1.23;93.41
9139;BME280;4604;48.616;9.548;2023-02-26T03:18:59;96402.19;;;-1.22;93.18
9139;BME280;4604;48.616;9.548;2023-02-26T03:21:30;96406.63;;;-1.24;93.76
9139;BME280;4604;48.616;9.548;2023-02-26T03:24:03;96407.69;;;-1.28;93.72
9139;BME280;4604;48.616;9.548;2023-02-26T03:26:41;96407.09;;;-1.33;93.67
9139;BME280;4604;48.616;9.548;2023-02-26T03:29:15;96412.66;;;-1.41;94.32
9139;BME280;4604;48.616;9.548;2023-02-26T03:31:51;96405.78;;;-1.42;94.60
9139;BME280;4604;48.616;9.548;2023-02-26T03:34:23;96412.81;;;-1.44;94.43
9139;BME280;4604;48.616;9.548;2023-02-26T03:36:55;96417.91;;;-1.42;93.82
9139;BME280;4604;48.616;9.548;2023-02-26T03:39:26;96420.66;;;-1.45;93.88
9139;BME280;4604;48.616;9.548;2023-02-26T03:41:59;96413.41;;;-1.56;94.08
9139;BME280;4604;48.616;9.548;2023-02-26T03:44:31;96417.94;;;-1.60;94.17
9139;BME280;4604;48.616;9.548;2023-02-26T03:47:03;96422.09;;;-1.57;94.27
9139;BME280;4604;48.616;9.548;2023-02-26T03:49:33;96424.91;;;-1.44;92.07
9139;BME280;4604;48.616;9.548;2023-02-26T03:52:02;96417.22;;;-1.13;85.88
9139;BME280;4604;48.616;9.548;2023-02-26T03:54:33;96422.28;;;-1.27;84.02
9139;BME280;4604;48.616;9.548;2023-02-26T03:57:01;96421.94;;;-1.54;85.40
9139;BME280;4604;48.616;9.548;2023-02-26T03:59:29;96421.19;;;-1.74;86.18
9139;BME280;4604;48.616;9.548;2023-02-26T04:02:00;96418.31;;;-1.85;87.76
9139;BME280;4604;48.616;9.548;2023-02-26T04:04:33;96436.34;;;-1.83;86.83
9139;BME280;4604;48.616;9.548;2023-02-26T04:07:01;96430.88;;;-1.95;87.47
9139;BME280;4604;48.616;9.548;2023-02-26T04:09:29;96428.13;;;-1.91;87.98
9139;BME280;4604;48.616;9.548;2023-02-26T04:11:56;96439.31;;;-1.74;86.08
9139;BME280;4604;48.616;9.548;2023-02-26T04:14:24;96438.84;;;-1.82;86.00
9139;BME280;4604;48.616;9.548;2023-02-26T04:16:50;96436.94;;;-1.96;86.87
9139;BME280;4604;48.616;9.548;2023-02-26T04:19:19;96448.75;;;-1.90;87.48
9139;BME280;4604;48.616;9.548;2023-02-26T04:21:45;96445.63;;;-1.62;84.76
9139;BME280;4604;48.616;9.548;2023-02-26T04:24:12;96445.34;;;-1.73;83.70
9139;BME280;4604;48.616;9.548;2023-02-26T04:26:39;96448.88;;;-1.76;82.54
9139;BME280;4604;48.616;9.548;2023-02-26T04:29:05;96441.59;;;-1.85;83.40
9139;BME280;4604;48.616;9.548;2023-02-26T04:31:32;96449.50;;;-1.53;81.10
9139;BME280;4604;48.616;9.548;2023-02-26T04:33:59;96448.03;;;-1.76;81.71
9139;BME280;4604;48.616;9.548;2023-02-26T04:36:27;96442.09;;;-1.96;83.15
9139;BME280;4604;48.616;9.548;2023-02-26T04:38:54;96454.25;;;-1.98;84.16
9139;BME280;4604;48.616;9.548;2023-02-26T04:41:21;96465.47;;;-1.97;84.20
9139;BME280;4604;48.616;9.548;2023-02-26T04:43:47;96463.94;;;-2.01;84.86
9139;BME280;4604;48.616;9.548;2023-02-26T04:46:14;96459.53;;;-1.82;82.73
9139;BME280;4604;48.616;9.548;2023-02-26T04:48:41;96461.34;;;-2.01;84.03
9139;BME280;4604;48.616;9.548;2023-02-26T04:51:07;96470.03;;;-2.02;84.70
9139;BME280;4604;48.616;9.548;2023-02-26T04:53:35;96461.28;;;-2.00;83.47
9139;BME280;4604;48.616;9.548;2023-02-26T04:56:03;96471.63;;;-2.00;83.77
9139;BME280;4604;48.616;9.548;2023-02-26T04:58:29;96474.44;;;-2.04;84.07
9139;BME280;4604;48.616;9.548;2023-02-26T05:00:56;96475.41;;;-2.07;83.58
9139;BME280;4604;48.616;9.548;2023-02-26T05:03:23;96470.88;;;-2.21;84.71
9139;BME280;4604;48.616;9.548;2023-02-26T05:05:50;96473.00;;;-2.29;85.20
9139;BME280;4604;48.616;9.548;2023-02-26T05:08:17;96484.44;;;-2.34;85.53
9139;BME280;4604;48.616;9.548;2023-02-26T05:10:45;96480.41;;;-2.40;86.48
9139;BME280;4604;48.616;9.548;2023-02-26T05:13:12;96477.81;;;-2.40;86.23
9139;BME280;4604;48.616;9.548;2023-02-26T05:15:38;96481.44;;;-2.44;86.01
9139;BME280;4604;48.616;9.548;2023-02-26T05:18:05;96489.41;;;-2.30;84.67
9139;BME280;4604;48.616;9.548;2023-02-26T05:20:32;96482.16;;;-2.41;85.05
9139;BME280;4604;48.616;9.548;2023-02-26T05:22:59;96484.03;;;-2.44;86.13
9139;BME280;4604;48.616;9.548;2023-02-26T05:25:25;96491.88;;;-2.46;86.23
9139;BME280;4604;48.616;9.548;2023-02-26T05:27:53;96493.94;;;-2.54;86.29
9139;BME280;4604;48.616;9.548;2023-02-26T05:30:21;96495.03;;;-2.58;86.96
9139;BME280;4604;48.616;9.548;2023-02-26T05:32:47;96500.19;;;-2.58;86.33
9139;BME280;4604;48.616;9.548;2023-02-26T05:35:14;96500.03;;;-2.55;86.60
9139;BME280;4604;48.616;9.548;2023-02-26T05:37:41;96502.53;;;-2.34;85.09
9139;BME280;4604;48.616;9.548;2023-02-26T05:40:08;96502.81;;;-2.60;86.43
9139;BME280;4604;48.616;9.548;2023-02-26T05:42:36;96514.28;;;-2.65;86.65
9139;BME280;4604;48.616;9.548;2023-02-26T05:45:05;96511.06;;;-2.70;87.43
9139;BME280;4604;48.616;9.548;2023-02-26T05:47:32;96516.88;;;-2.65;87.69
9139;BME280;4604;48.616;9.548;2023-02-26T05:49:59;96525.25;;;-2.60;87.94
9139;BME280;4604;48.616;9.548;2023-02-26T05:52:25;96528.25;;;-2.50;88.55
9139;BME280;4604;48.616;9.548;2023-02-26T05:54:52;96531.50;;;-2.47;88.75
9139;BME280;4604;48.616;9.548;2023-02-26T05:57:19;96523.75;;;-2.47;89.00
9139;BME280;4604;48.616;9.548;2023-02-26T05:59:45;96529.16;;;-2.32;89.12
9139;BME280;4604;48.616;9.548;2023-02-26T06:02:13;96533.97;;;-2.25;89.13
9139;BME280;4604;48.616;9.548;2023-02-26T06:04:40;96536.34;;;-2.20;88.89
9139;BME280;4604;48.616;9.548;2023-02-26T06:07:07;96534.53;;;-2.18;88.43
9139;BME280;4604;48.616;9.548;2023-02-26T06:09:33;96547.25;;;-2.13;87.84
9139;BME280;4604;48.616;9.548;2023-02-26T06:12:00;96528.44;;;-2.17;88.58
9139;BME280;4604;48.616;9.548;2023-02-26T06:14:27;96545.63;;;-1.97;88.32
9139;BME280;4604;48.616;9.548;2023-02-26T06:16:54;96548.81;;;-1.92;88.09
9139;BME280;4604;48.616;9.548;2023-02-26T06:19:22;96550.06;;;-2.01;88.22
9139;BME280;4604;48.616;9.548;2023-02-26T06:21:48;96555.88;;;-1.96;87.18
9139;BME280;4604;48.616;9.548;2023-02-26T06:24:15;96564.53;;;-1.78;86.71
9139;BME280;4604;48.616;9.548;2023-02-26T06:26:42;96566.78;;;-1.89;86.77
9139;BME280;4604;48.616;9.548;2023-02-26T06:29:09;96577.09;;;-1.70;85.90
9139;BME280;4604;48.616;9.548;2023-02-26T06:31:36;96570.00;;;-1.66;84.98
9139;BME280;4604;48.616;9.548;2023-02-26T06:34:02;96573.75;;;-1.72;85.48
9139;BME280;4604;48.616;9.548;2023-02-26T06:36:30;96574.69;;;-1.56;84.26
9139;BME280;4604;48.616;9.548;2023-02-26T06:38:57;96584.03;;;-1.70;84.84
9139;BME280;4604;48.616;9.548;2023-02-26T06:41:24;96586.50;;;-1.50;83.56
9139;BME280;4604;48.616;9.548;2023-02-26T06:43:50;96590.06;;;-1.53;83.62
9139;BME280;4604;48.616;9.548;2023-02-26T06:46:17;96587.88;;;-1.79;85.09
9139;BME280;4604;48.616;9.548;2023-02-26T06:48:43;96589.59;;;-1.61;85.72
9139;BME280;4604;48.616;9.548;2023-02-26T06:51:10;96595.09;;;-1.49;85.43
9139;BME280;4604;48.616;9.548;2023-02-26T06:53:38;96599.66;;;-1.74;86.69
9139;BME280;4604;48.616;9.548;2023-02-26T06:56:05;96607.56;;;-1.77;87.75
9139;BME280;4604;48.616;9.548;2023-02-26T06:58:33;96600.75;;;-1.78;89.35
9139;BME280;4604;48.616;9.548;2023-02-26T07:00:59;96611.81;;;-1.57;87.85
9139;BME280;4604;48.616;9.548;2023-02-26T07:03:28;96618.16;;;-1.45;88.25
9139;BME280;4604;48.616;9.548;2023-02-26T07:05:55;96617.97;;;-1.59;88.43
9139;BME280;4604;48.616;9.548;2023-02-26T07:08:22;96600.44;;;-1.72;89.70
9139;BME280;4604;48.616;9.548;2023-02-26T07:10:50;96626.34;;;-1.54;89.09
9139;BME280;4604;48.616;9.548;2023-02-26T07:13:17;96622.53;;;-1.64;89.80
9139;BME280;4604;48.616;9.548;2023-02-26T07:15:43;96622.09;;;-1.55;90.70
9139;BME280;4604;48.616;9.548;2023-02-26T07:18:10;96627.44;;;-1.58;91.62
9139;BME280;4604;48.616;9.548;2023-02-26T07:20:36;96631.53;;;-1.54;92.33
9139;BME280;4604;48.616;9.548;2023-02-26T07:23:03;96629.53;;;-1.30;90.96
9139;BME280;4604;48.616;9.548;2023-02-26T07:25:30;96639.31;;;-1.37;91.40
9139;BME280;4604;48.616;9.548;2023-02-26T07:27:58;96638.50;;;-1.37;91.50
9139;BME280;4604;48.616;9.548;2023-02-26T07:30:25;96644.28;;;-1.32;90.97
9139;BME280;4604;48.616;9.548;2023-02-26T07:32:51;96645.94;;;-1.12;89.12
9139;BME280;4604;48.616;9.548;2023-02-26T07:35:18;96644.41;;;-0.99;87.46
9139;BME280;4604;48.616;9.548;2023-02-26T07:37:45;96648.44;;;-1.11;87.87
9139;BME280;4604;48.616;9.548;2023-02-26T07:40:12;96646.44;;;-1.23;89.47
9139;BME280;4604;48.616;9.548;2023-02-26T07:42:39;96648.25;;;-1.25;89.81
9139;BME280;4604;48.616;9.548;2023-02-26T07:45:08;96650.84;;;-1.08;88.98
9139;BME280;4604;48.616;9.548;2023-02-26T07:47:34;96644.69;;;-1.05;89.13
9139;BME280;4604;48.616;9.548;2023-02-26T07:50:01;96645.06;;;-1.13;89.88
9139;BME280;4604;48.616;9.548;2023-02-26T07:52:28;96650.84;;;-1.25;90.96
9139;BME280;4604;48.616;9.548;2023-02-26T07:54:54;96646.38;;;-1.04;89.19
9139;BME280;4604;48.616;9.548;2023-02-26T07:57:21;96644.78;;;-0.89;89.03
9139;BME280;4604;48.616;9.548;2023-02-26T07:59:48;96649.19;;;-0.91;88.75
9139;BME280;4604;48.616;9.548;2023-02-26T08:02:16;96651.50;;;-0.85;89.36
9139;BME280;4604;48.616;9.548;2023-02-26T08:04:43;96651.78;;;-0.91;90.96
9139;BME280;4604;48.616;9.548;2023-02-26T08:07:09;96662.97;;;-1.08;93.87
9139;BME280;4604;48.616;9.548;2023-02-26T08:09:36;96659.38;;;-1.23;94.93
9139;BME280;4604;48.616;9.548;2023-02-26T08:12:03;96666.91;;;-1.36;97.50
9139;BME280;4604;48.616;9.548;2023-02-26T08:14:29;96664.38;;;-1.37;97.68
9139;BME280;4604;48.616;9.548;2023-02-26T08:16:56;96665.59;;;-1.27;98.57
9139;BME280;4604;48.616;9.548;2023-02-26T08:19:25;96663.53;;;-1.01;96.24
9139;BME280;4604;48.616;9.548;2023-02-26T08:21:51;96667.03;;;-0.85;92.90
9139;BME280;4604;48.616;9.548;2023-02-26T08:24:19;96663.38;;;-0.98;92.40
9139;BME280;4604;48.616;9.548;2023-02-26T08:26:46;96673.28;;;-1.06;90.29
9139;BME280;4604;48.616;9.548;2023-02-26T08:29:13;96674.44;;;-0.95;90.59
9139;BME280;4604;48.616;9.548;2023-02-26T08:31:39;96671.66;;;-1.09;91.74
9139;BME280;4604;48.616;9.548;2023-02-26T08:34:06;96683.91;;;-1.13;92.74
9139;BME280;4604;48.616;9.548;2023-02-26T08:36:34;96677.41;;;-1.02;90.95
9139;BME280;4604;48.616;9.548;2023-02-26T08:39:01;96680.50;;;-0.96;91.29
9139;BME280;4604;48.616;9.548;2023-02-26T08:41:28;96665.88;;;-1.14;92.53
9139;BME280;4604;48.616;9.548;2023-02-26T08:43:56;96690.19;;;-0.99;91.75
9139;BME280;4604;48.616;9.548;2023-02-26T08:46:23;96679.91;;;-0.83;90.67
9139;BME280;4604;48.616;9.548;2023-02-26T08:48:49;96682.66;;;-0.69;88.58
9139;BME280;4604;48.616;9.548;2023-02-26T08:51:17;96692.19;;;-0.70;87.46
9139;BME280;4604;48.616;9.548;2023-02-26T08:53:45;96684.56;;;-0.55;87.24
9139;BME280;4604;48.616;9.548;2023-02-26T08:56:14;96690.59;;;-0.55;85.92
9139;BME280;4604;48.616;9.548;2023-02-26T08:58:40;96681.66;;;-0.49;86.35
9139;BME280;4604;48.616;9.548;2023-02-26T09:01:08;96683.25;;;-0.47;85.60
9139;BME280;4604;48.616;9.548;2023-02-26T09:03:35;96694.09;;;-0.56;84.21
9139;BME280;4604;48.616;9.548;2023-02-26T09:06:02;96689.03;;;-0.59;85.84
9139;BME280;4604;48.616;9.548;2023-02-26T09:08:29;96699.72;;;-0.48;84.99
9139;BME280;4604;48.616;9.548;2023-02-26T09:11:00;96701.41;;;-0.47;84.97
9139;BME280;4604;48.616;9.548;2023-02-26T09:13:27;96698.19;;;-0.34;86.16
9139;BME280;4604;48.616;9.548;2023-02-26T09:15:53;96714.66;;;-0.35;83.94
9139;BME280;4604;48.616;9.548;2023-02-26T09:18:20;96715.50;;;-0.35;84.46
9139;BME280;4604;48.616;9.548;2023-02-26T09:20:46;96715.97;;;-0.27;84.70
9139;BME280;4604;48.616;9.548;2023-02-26T09:23:13;96713.75;;;-0.17;83.48
9139;BME280;4604;48.616;9.548;2023-02-26T09:25:40;96714.97;;;-0.24;82.77
9139;BME280;4604;48.616;9.548;2023-02-26T09:28:08;96729.94;;;-0.29;82.78
9139;BME280;4604;48.616;9.548;2023-02-26T09:30:34;96724.28;;;-0.37;82.33
9139;BME280;4604;48.616;9.548;2023-02-26T09:33:01;96734.97;;;-0.44;83.28
9139;BME280;4604;48.616;9.548;2023-02-26T09:35:27;96723.72;;;-0.44;83.36
9139;BME280;4604;48.616;9.548;2023-02-26T09:37:54;96730.91;;;-0.49;84.24
9139;BME280;4604;48.616;9.548;2023-02-26T09:40:27;96734.56;;;-0.53;83.81
9139;BME280;4604;48.616;9.548;2023-02-26T09:43:06;96736.47;;;-0.39;85.09
9139;BME280;4604;48.616;9.548;2023-02-26T09:45:40;96746.16;;;-0.43;84.70
9139;BME280;4604;48.616;9.548;2023-02-26T09:48:10;96742.75;;;-0.44;83.73
9139;BME280;4604;48.616;9.548;2023-02-26T09:50:41;96742.97;;;-0.48;84.98
9139;BME280;4604;48.616;9.548;2023-02-26T09:53:13;96744.38;;;-0.25;80.65
9139;BME280;4604;48.616;9.548;2023-02-26T09:55:43;96746.34;;;-0.13;80.01
9139;BME280;4604;48.616;9.548;2023-02-26T09:58:17;96742.03;;;-0.30;82.27
9139;BME280;4604;48.616;9.548;2023-02-26T10:00:51;96744.06;;;-0.02;80.80
9139;BME280;4604;48.616;9.548;2023-02-26T10:03:26;96741.09;;;-0.11;80.89
9139;BME280;4604;48.616;9.548;2023-02-26T10:06:11;96742.38;;;-0.03;79.65
9139;BME280;4604;48.616;9.548;2023-02-26T10:08:46;96749.34;;;-0.20;80.99
9139;BME280;4604;48.616;9.548;2023-02-26T10:11:21;96740.53;;;-0.34;83.46
9139;BME280;4604;48.616;9.548;2023-02-26T10:13:53;96742.34;;;-0.36;82.93
9139;BME280;4604;48.616;9.548;2023-02-26T10:16:27;96735.31;;;-0.16;82.73
9139;BME280;4604;48.616;9.548;2023-02-26T10:18:59;96750.19;;;-0.20;81.76
9139;BME280;4604;48.616;9.548;2023-02-26T10:21:32;96746.81;;;-0.22;82.04
9139;BME280;4604;48.616;9.548;2023-02-26T10:24:05;96749.66;;;-0.27;82.69
9139;BME280;4604;48.616;9.548;2023-02-26T10:26:36;96744.78;;;-0.33;84.01
9139;BME280;4604;48.616;9.548;2023-02-26T10:29:13;96746.69;;;-0.36;83.42
9139;BME280;4604;48.616;9.548;2023-02-26T10:31:54;96749.59;;;-0.43;84.66
9139;BME280;4604;48.616;9.548;2023-02-26T10:34:28;96754.00;;;-0.45;86.47
9139;BME280;4604;48.616;9.548;2023-02-26T10:37:03;96749.19;;;-0.52;86.49
9139;BME280;4604;48.616;9.548;2023-02-26T10:39:38;96757.69;;;-0.49;88.09
9139;BME280;4604;48.616;9.548;2023-02-26T10:42:12;96760.50;;;-0.36;87.02
9139;BME280;4604;48.616;9.548;2023-02-26T10:44:44;96758.66;;;-0.16;86.19
9139;BME280;4604;48.616;9.548;2023-02-26T10:47:20;96748.69;;;-0.24;86.56
9139;BME280;4604;48.616;9.548;2023-02-26T10:49:52;96742.13;;;0.02;85.50
9139;BME280;4604;48.616;9.548;2023-02-26T10:52:23;96751.09;;;0.30;83.85
9139;BME280;4604;48.616;9.548;2023-02-26T10:55:09;96747.06;;;0.24;83.25
9139;BME280;4604;48.616;9.548;2023-02-26T10:57:51;96747.16;;;0.23;83.68
9139;BME280;4604;48.616;9.548;2023-02-26T11:00:20;96748.94;;;0.38;81.78
9139;BME280;4604;48.616;9.548;2023-02-26T11:02:51;96753.97;;;0.41;80.80
9139;BME280;4604;48.616;9.548;2023-02-26T11:05:21;96767.44;;;0.32;82.81
9139;BME280;4604;48.616;9.548;2023-02-26T11:07:50;96765.03;;;0.11;83.14
9139;BME280;4604;48.616;9.548;2023-02-26T11:10:22;96765.03;;;0.11;83.12
9139;BME280;4604;48.616;9.548;2023-02-26T11:12:50;96764.03;;;0.14;83.08
9139;BME280;4604;48.616;9.548;2023-02-26T11:15:19;96756.94;;;0.17;84.25
9139;BME280;4604;48.616;9.548;2023-02-26T11:17:48;96759.28;;;0.22;83.69
9139;BME280;4604;48.616;9.548;2023-02-26T11:20:28;96766.22;;;0.21;85.24
9139;BME280;4604;48.616;9.548;2023-02-26T11:22:56;96756.38;;;0.28;85.47
9139;BME280;4604;48.616;9.548;2023-02-26T11:25:27;96758.13;;;0.28;85.60
9139;BME280;4604;48.616;9.548;2023-02-26T11:28:00;96766.09;;;0.25;84.00
9139;BME280;4604;48.616;9.548;2023-02-26T11:30:30;96763.84;;;0.34;85.13
9139;BME280;4604;48.616;9.548;2023-02-26T11:32:58;96761.91;;;0.38;82.94
9139;BME280;4604;48.616;9.548;2023-02-26T11:35:30;96760.56;;;0.31;83.77
9139;BME280;4604;48.616;9.548;2023-02-26T11:37:59;96764.50;;;0.38;85.71
9139;BME280;4604;48.616;9.548;2023-02-26T11:40:33;96762.50;;;0.43;82.77
9139;BME280;4604;48.616;9.548;2023-02-26T11:43:06;96760.91;;;0.40;82.92
9139;BME280;4604;48.616;9.548;2023-02-26T11:45:35;96758.38;;;0.39;83.64
9139;BME280;4604;48.616;9.548;2023-02-26T11:48:06;96777.56;;;0.36;82.69
9139;BME280;4604;48.616;9.548;2023-02-26T11:50:39;96764.75;;;0.33;82.36
9139;BME280;4604;48.616;9.548;2023-02-26T11:53:16;96763.09;;;0.32;83.48
9139;BME280;4604;48.616;9.548;2023-02-26T11:55:45;96761.91;;;0.38;83.71
9139;BME280;4604;48.616;9.548;2023-02-26T11:58:18;96760.97;;;0.39;83.18
9139;BME280;4604;48.616;9.548;2023-02-26T12:00:46;96757.31;;;0.27;81.35
9139;BME280;4604;48.616;9.548;2023-02-26T12:03:19;96764.91;;;0.30;83.46
9139;BME280;4604;48.616;9.548;2023-02-26T12:05:49;96754.00;;;0.24;82.73
9139;BME280;4604;48.616;9.548;2023-02-26T12:08:25;96762.69;;;0.40;83.69
9139;BME280;4604;48.616;9.548;2023-02-26T12:11:04;96759.66;;;0.48;83.11
9139;BME280;4604;48.616;9.548;2023-02-26T12:13:39;96758.75;;;0.49;82.89
9139;BME280;4604;48.616;9.548;2023-02-26T12:16:16;96763.69;;;0.53;83.30
9139;BME280;4604;48.616;9.548;2023-02-26T12:18:53;96762.38;;;0.62;83.22
9139;BME280;4604;48.616;9.548;2023-02-26T12:21:43;96770.13;;;0.46;83.73
9139;BME280;4604;48.616;9.548;2023-02-26T12:24:38;96766.81;;;0.60;83.02
9139;BME280;4604;48.616;9.548;2023-02-26T12:27:15;96775.63;;;0.73;81.14
9139;BME280;4604;48.616;9.548;2023-02-26T12:29:57;96772.34;;;0.70;82.15
9139;BME280;4604;48.616;9.548;2023-02-26T12:33:07;96768.44;;;0.78;79.92
9139;BME280;4604;48.616;9.548;2023-02-26T12:35:40;96773.28;;;0.69;80.68
9139;BME280;4604;48.616;9.548;2023-02-26T12:38:18;96761.69;;;0.58;77.48
9139;BME280;4604;48.616;9.548;2023-02-26T12:40:56;96773.59;;;0.62;78.32
9139;BME280;4604;48.616;9.548;2023-02-26T12:43:32;96770.22;;;0.60;80.58
9139;BME280;4604;48.616;9.548;2023-02-26T12:46:07;96773.75;;;0.75;77.75
9139;BME280;4604;48.616;9.548;2023-02-26T12:48:52;96778.06;;;0.76;77.20
9139;BME280;4604;48.616;9.548;2023-02-26T12:51:38;96773.53;;;0.64;77.26
9139;BME280;4604;48.616;9.548;2023-02-26T12:54:25;96772.00;;;0.60;79.36
9139;BME280;4604;48.616;9.548;2023-02-26T12:57:07;96780.31;;;0.67;79.56
9139;BME280;4604;48.616;9.548;2023-02-26T13:00:16;96770.56;;;0.54;80.35
9139;BME280;4604;48.616;9.548;2023-02-26T13:03:11;96775.19;;;0.65;80.86
9139;BME280;4604;48.616;9.548;2023-02-26T13:06:01;96774.94;;;0.70;79.67
9139;BME280;4604;48.616;9.548;2023-02-26T13:08:37;96779.06;;;0.74;78.31
9139;BME280;4604;48.616;9.548;2023-02-26T13:11:16;96783.50;;;0.88;77.39
9139;BME280;4604;48.616;9.548;2023-02-26T13:13:59;96784.94;;;0.93;77.69
9139;BME280;4604;48.616;9.548;2023-02-26T13:16:37;96777.47;;;1.03;75.82
9139;BME280;4604;48.616;9.548;2023-02-26T13:19:16;96778.88;;;1.09;76.18
9139;BME280;4604;48.616;9.548;2023-02-26T13:21:47;96776.53;;;1.04;76.37
9139;BME280;4604;48.616;9.548;2023-02-26T13:24:19;96775.09;;;1.14;77.10
9139;BME280;4604;48.616;9.548;2023-02-26T13:26:50;96779.41;;;1.15;77.21
9139;BME280;4604;48.616;9.548;2023-02-26T13:29:20;96779.66;;;1.11;78.05
9139;BME280;4604;48.616;9.548;2023-02-26T13:31:52;96775.28;;;1.11;76.55
9139;BME280;4604;48.616;9.548;2023-02-26T13:34:35;96788.34;;;1.10;76.60
9139;BME280;4604;48.616;9.548;2023-02-26T13:37:05;96785.75;;;1.10;75.85
9139;BME280;4604;48.616;9.548;2023-02-26T13:39:43;96778.88;;;1.09;72.79
9139;BME280;4604;48.616;9.548;2023-02-26T13:42:20;96793.66;;;1.08;72.26
9139;BME280;4604;48.616;9.548;2023-02-26T13:45:02;96786.25;;;1.32;70.79
9139;BME280;4604;48.616;9.548;2023-02-26T13:47:50;96783.72;;;1.46;69.46